Pueblo, Colorado
Current Conditions -  °F | °C
As of 5:53 PM on Friday 19 Dec 2014 (Local Time) from KPUB Reporting Station
Clear Clear  
Wind Chill: 25°   Ceiling: Unl
Heat Index: 32°   Visibility: 10mi
Dew Point: 18°   Wind: 8mph
Humidity: 56%   Direction: 100°E
Pressure: 30.02"   Gusts: NA
Location:  38.26°N, 104.63°W
Report Text: KPUB 200053Z 10007KT 10SM CLR 00/M08 A3002 RMK AO2 SLP198 T00001078
Loading
Personal Weather Stations






























Interactive Weather Map New forecast layout! Learn more

10-Day Weather Forecast

Advertisements
Track Severe Weather on mobile